Time,TemperatureF,DewpointF,PressureIn,WindDirection,WindDirectionDegrees,WindSpeedMPH,WindSpeedGustMPH,Humidity,HourlyPrecipIn,Conditions,Clouds,dailyrainin,SolarRadiationWatts/m^2,SoftwareType,DateUTC
2013-07-31 00:12:00,69.0,39.0,-100.00,South,190,9.0,11.0,34,0.00,,,0.00,0.000000,,2013-07-31 06:12:00,
2013-07-31 00:22:00,69.0,39.0,-100.00,South,190,9.0,11.0,34,0.00,,,0.00,0.000000,,2013-07-31 06:22:00,
2013-07-31 00:32:00,69.0,39.0,-100.00,South,190,9.0,11.0,34,0.00,,,0.00,0.000000,,2013-07-31 06:32:00,
2013-07-31 00:43:00,69.0,39.0,-100.00,South,190,9.0,11.0,34,0.00,,,0.00,0.000000,,2013-07-31 06:43:00,
2013-07-31 01:12:00,70.0,38.0,-100.00,SSW,193,8.0,11.0,31,0.00,,,0.00,0.000000,,2013-07-31 07:12:00,
2013-07-31 01:22:00,70.0,38.0,-100.00,SSW,193,8.0,11.0,31,0.00,,,0.00,0.000000,,2013-07-31 07:22:00,
2013-07-31 01:32:00,70.0,38.0,-100.00,SSW,193,8.0,11.0,31,0.00,,,0.00,0.000000,,2013-07-31 07:32:00,
2013-07-31 01:43:00,70.0,38.0,-100.00,SSW,193,8.0,11.0,31,0.00,,,0.00,0.000000,,2013-07-31 07:43:00,
2013-07-31 02:12:00,70.0,40.0,-100.00,SSW,193,8.0,12.0,34,0.00,,,0.00,0.000000,,2013-07-31 08:12:00,
2013-07-31 02:22:00,70.0,40.0,-100.00,SSW,193,8.0,12.0,34,0.00,,,0.00,0.000000,,2013-07-31 08:22:00,
2013-07-31 02:32:00,70.0,40.0,-100.00,SSW,193,8.0,12.0,34,0.00,,,0.00,0.000000,,2013-07-31 08:32:00,
2013-07-31 02:42:00,70.0,40.0,-100.00,SSW,193,8.0,12.0,34,0.00,,,0.00,0.000000,,2013-07-31 08:42:00,
2013-07-31 03:12:00,71.0,41.0,-100.00,SSW,198,9.0,13.0,34,0.00,,,0.00,0.000000,,2013-07-31 09:12:00,
2013-07-31 03:22:00,71.0,41.0,-100.00,SSW,198,9.0,13.0,34,0.00,,,0.00,0.000000,,2013-07-31 09:22:00,
2013-07-31 03:32:00,71.0,41.0,-100.00,SSW,198,9.0,13.0,34,0.00,,,0.00,0.000000,,2013-07-31 09:32:00,
2013-07-31 03:43:00,71.0,41.0,-100.00,SSW,198,9.0,13.0,34,0.00,,,0.00,0.000000,,2013-07-31 09:43:00,
2013-07-31 04:12:00,70.0,40.0,-100.00,SSW,198,10.0,13.0,34,0.00,,,0.00,0.000000,,2013-07-31 10:12:00,
2013-07-31 04:22:00,70.0,40.0,-100.00,SSW,198,10.0,13.0,34,0.00,,,0.00,0.000000,,2013-07-31 10:22:00,
2013-07-31 04:32:00,70.0,40.0,-100.00,SSW,198,10.0,13.0,34,0.00,,,0.00,0.000000,,2013-07-31 10:32:00,
2013-07-31 04:44:00,70.0,40.0,-100.00,SSW,198,10.0,13.0,34,0.00,,,0.00,0.000000,,2013-07-31 10:44:00,
2013-07-31 05:12:00,69.0,39.0,-100.00,SSW,198,8.0,13.0,34,0.00,,,0.00,0.000000,,2013-07-31 11:12:00,
2013-07-31 05:22:00,69.0,39.0,-100.00,SSW,198,8.0,13.0,34,0.00,,,0.00,0.000000,,2013-07-31 11:22:00,
2013-07-31 05:33:00,69.0,39.0,-100.00,SSW,198,8.0,13.0,34,0.00,,,0.00,0.000000,,2013-07-31 11:33:00,
2013-07-31 05:43:00,69.0,39.0,-100.00,SSW,198,8.0,13.0,34,0.00,,,0.00,0.000000,,2013-07-31 11:43:00,
2013-07-31 06:12:00,64.0,41.0,-100.00,WSW,242,3.0,12.0,43,0.00,,,0.00,0.000000,,2013-07-31 12:12:00,
2013-07-31 06:22:00,64.0,41.0,-100.00,WSW,242,3.0,12.0,43,0.00,,,0.00,0.000000,,2013-07-31 12:22:00,
2013-07-31 06:33:00,64.0,41.0,-100.00,WSW,242,3.0,12.0,43,0.00,,,0.00,0.000000,,2013-07-31 12:33:00,
2013-07-31 06:43:00,64.0,41.0,-100.00,WSW,242,3.0,12.0,43,0.00,,,0.00,0.000000,,2013-07-31 12:43:00,
2013-07-31 07:12:00,64.0,42.0,-100.00,South,185,4.0,7.0,45,0.00,,,0.00,10.000000,,2013-07-31 13:12:00,
2013-07-31 07:22:00,64.0,42.0,-100.00,South,185,4.0,7.0,45,0.00,,,0.00,10.000000,,2013-07-31 13:22:00,
2013-07-31 07:33:00,64.0,42.0,-100.00,South,185,4.0,7.0,45,0.00,,,0.00,10.000000,,2013-07-31 13:33:00,
2013-07-31 07:43:00,64.0,42.0,-100.00,South,185,4.0,7.0,45,0.00,,,0.00,10.000000,,2013-07-31 13:43:00,
2013-07-31 08:12:00,72.0,46.0,-100.00,NE,40,1.0,8.0,39,0.00,,,0.00,160.000000,,2013-07-31 14:12:00,
2013-07-31 08:22:00,72.0,46.0,-100.00,NE,40,1.0,8.0,39,0.00,,,0.00,160.000000,,2013-07-31 14:22:00,
2013-07-31 08:34:00,72.0,46.0,-100.00,NE,40,1.0,8.0,39,0.00,,,0.00,160.000000,,2013-07-31 14:34:00,
2013-07-31 08:43:00,72.0,46.0,-100.00,NE,40,1.0,8.0,39,0.00,,,0.00,160.000000,,2013-07-31 14:43:00,
2013-07-31 09:12:00,79.0,44.0,-100.00,SW,231,1.0,7.0,29,0.00,,,0.00,383.000000,,2013-07-31 15:12:00,
2013-07-31 09:22:00,79.0,44.0,-100.00,SW,231,1.0,7.0,29,0.00,,,0.00,383.000000,,2013-07-31 15:22:00,
2013-07-31 09:43:00,79.0,44.0,-100.00,SW,231,1.0,7.0,29,0.00,,,0.00,383.000000,,2013-07-31 15:43:00,
2013-07-31 10:22:00,81.0,45.0,-100.00,NW,322,5.0,9.0,28,0.00,,,0.00,575.000000,,2013-07-31 16:22:00,
2013-07-31 10:33:00,81.0,45.0,-100.00,NW,322,5.0,9.0,28,0.00,,,0.00,575.000000,,2013-07-31 16:33:00,
2013-07-31 10:44:00,81.0,45.0,-100.00,NW,322,5.0,9.0,28,0.00,,,0.00,575.000000,,2013-07-31 16:44:00,
2013-07-31 11:13:00,81.0,46.0,-100.00,North,3,7.0,12.0,29,0.00,,,0.00,748.000000,,2013-07-31 17:13:00,
2013-07-31 11:22:00,81.0,46.0,-100.00,North,3,7.0,12.0,29,0.00,,,0.00,748.000000,,2013-07-31 17:22:00,
2013-07-31 11:33:00,81.0,46.0,-100.00,North,3,7.0,12.0,29,0.00,,,0.00,748.000000,,2013-07-31 17:33:00,
2013-07-31 11:43:00,81.0,46.0,-100.00,North,3,7.0,12.0,29,0.00,,,0.00,748.000000,,2013-07-31 17:43:00,
2013-07-31 12:12:00,77.0,46.0,-100.00,North,357,7.0,12.0,34,0.00,,,0.00,479.000000,,2013-07-31 18:12:00,
2013-07-31 12:22:00,77.0,46.0,-100.00,North,357,7.0,12.0,34,0.00,,,0.00,479.000000,,2013-07-31 18:22:00,
2013-07-31 12:32:00,77.0,46.0,-100.00,North,357,7.0,12.0,34,0.00,,,0.00,479.000000,,2013-07-31 18:32:00,
2013-07-31 12:43:00,77.0,46.0,-100.00,North,357,7.0,12.0,34,0.00,,,0.00,479.000000,,2013-07-31 18:43:00,
2013-07-31 13:12:00,80.0,45.0,-100.00,NNW,348,5.0,11.0,29,0.00,,,0.00,602.000000,,2013-07-31 19:12:00,
2013-07-31 13:22:00,80.0,45.0,-100.00,NNW,348,5.0,11.0,29,0.00,,,0.00,602.000000,,2013-07-31 19:22:00,
2013-07-31 13:32:00,80.0,45.0,-100.00,NNW,348,5.0,11.0,29,0.00,,,0.00,602.000000,,2013-07-31 19:32:00,
2013-07-31 13:43:00,80.0,45.0,-100.00,NNW,348,5.0,11.0,29,0.00,,,0.00,602.000000,,2013-07-31 19:43:00,
2013-07-31 14:12:00,85.0,39.0,-100.00,NW,321,4.0,11.0,20,0.00,,,0.00,791.000000,,2013-07-31 20:12:00,
2013-07-31 14:22:00,85.0,39.0,-100.00,NW,321,4.0,11.0,20,0.00,,,0.00,791.000000,,2013-07-31 20:22:00,
2013-07-31 14:32:00,85.0,39.0,-100.00,NW,321,4.0,11.0,20,0.00,,,0.00,791.000000,,2013-07-31 20:32:00,
2013-07-31 14:43:00,85.0,39.0,-100.00,NW,321,4.0,11.0,20,0.00,,,0.00,791.000000,,2013-07-31 20:43:00,
2013-07-31 15:12:00,87.0,37.0,-100.00,West,260,10.0,18.0,17,0.00,,,0.00,1091.000000,,2013-07-31 21:12:00,
2013-07-31 15:22:00,87.0,37.0,-100.00,West,260,10.0,18.0,17,0.00,,,0.00,1091.000000,,2013-07-31 21:22:00,
2013-07-31 15:32:00,87.0,37.0,-100.00,West,260,10.0,18.0,17,0.00,,,0.00,1091.000000,,2013-07-31 21:32:00,
2013-07-31 15:43:00,87.0,37.0,-100.00,West,260,10.0,18.0,17,0.00,,,0.00,1091.000000,,2013-07-31 21:43:00,
2013-07-31 16:12:00,85.0,38.0,-100.00,West,280,9.0,20.0,19,0.00,,,0.00,847.000000,,2013-07-31 22:12:00,
2013-07-31 16:22:00,85.0,38.0,-100.00,West,280,9.0,20.0,19,0.00,,,0.00,847.000000,,2013-07-31 22:22:00,
2013-07-31 16:33:00,85.0,38.0,-100.00,West,280,9.0,20.0,19,0.00,,,0.00,847.000000,,2013-07-31 22:33:00,
2013-07-31 16:43:00,85.0,38.0,-100.00,West,280,9.0,20.0,19,0.00,,,0.00,847.000000,,2013-07-31 22:43:00,
2013-07-31 17:12:00,84.0,37.0,-100.00,SW,223,7.0,17.0,19,0.00,,,0.00,524.000000,,2013-07-31 23:12:00,
2013-07-31 17:22:00,84.0,37.0,-100.00,SW,223,7.0,17.0,19,0.00,,,0.00,524.000000,,2013-07-31 23:22:00,
2013-07-31 17:32:00,84.0,37.0,-100.00,SW,223,7.0,17.0,19,0.00,,,0.00,524.000000,,2013-07-31 23:32:00,
2013-07-31 17:42:00,84.0,37.0,-100.00,SW,223,7.0,17.0,19,0.00,,,0.00,524.000000,,2013-07-31 23:42:00,
2013-07-31 18:12:00,85.0,35.0,-100.00,West,269,8.0,17.0,17,0.00,,,0.00,509.000000,,2013-08-01 00:12:00,
2013-07-31 18:22:00,85.0,35.0,-100.00,West,269,8.0,17.0,17,0.00,,,0.00,509.000000,,2013-08-01 00:22:00,
2013-07-31 18:32:00,85.0,35.0,-100.00,West,269,8.0,17.0,17,0.00,,,0.00,509.000000,,2013-08-01 00:32:00,
2013-07-31 18:43:00,85.0,35.0,-100.00,West,269,8.0,17.0,17,0.00,,,0.00,509.000000,,2013-08-01 00:43:00,
2013-07-31 19:12:00,82.0,36.0,-100.00,SW,228,5.0,13.0,19,0.00,,,0.00,288.000000,,2013-08-01 01:12:00,
2013-07-31 19:22:00,82.0,36.0,-100.00,SW,228,5.0,13.0,19,0.00,,,0.00,288.000000,,2013-08-01 01:22:00,
2013-07-31 19:33:00,82.0,36.0,-100.00,SW,228,5.0,13.0,19,0.00,,,0.00,288.000000,,2013-08-01 01:33:00,
2013-07-31 19:43:00,82.0,36.0,-100.00,SW,228,5.0,13.0,19,0.00,,,0.00,288.000000,,2013-08-01 01:43:00,
2013-07-31 20:12:00,81.0,39.0,-100.00,SSW,199,3.0,9.0,22,0.00,,,0.00,164.000000,,2013-08-01 02:12:00,
2013-07-31 20:22:00,81.0,39.0,-100.00,SSW,199,3.0,9.0,22,0.00,,,0.00,164.000000,,2013-08-01 02:22:00,
2013-07-31 20:32:00,81.0,39.0,-100.00,SSW,199,3.0,9.0,22,0.00,,,0.00,164.000000,,2013-08-01 02:32:00,
2013-07-31 20:43:00,81.0,39.0,-100.00,SSW,199,3.0,9.0,22,0.00,,,0.00,164.000000,,2013-08-01 02:43:00,
2013-07-31 21:12:00,73.0,42.0,-100.00,South,189,8.0,10.0,33,0.00,,,0.00,30.000000,,2013-08-01 03:12:00,
2013-07-31 21:22:00,73.0,42.0,-100.00,South,189,8.0,10.0,33,0.00,,,0.00,30.000000,,2013-08-01 03:22:00,
2013-07-31 21:32:00,73.0,42.0,-100.00,South,189,8.0,10.0,33,0.00,,,0.00,30.000000,,2013-08-01 03:32:00,
2013-07-31 21:43:00,73.0,42.0,-100.00,South,189,8.0,10.0,33,0.00,,,0.00,30.000000,,2013-08-01 03:43:00,
2013-07-31 22:12:00,72.0,40.0,-100.00,South,189,9.0,12.0,31,0.00,,,0.00,0.000000,,2013-08-01 04:12:00,
2013-07-31 22:22:00,72.0,40.0,-100.00,South,189,9.0,12.0,31,0.00,,,0.00,0.000000,,2013-08-01 04:22:00,
2013-07-31 22:33:00,72.0,40.0,-100.00,South,189,9.0,12.0,31,0.00,,,0.00,0.000000,,2013-08-01 04:33:00,
2013-07-31 22:43:00,72.0,40.0,-100.00,South,189,9.0,12.0,31,0.00,,,0.00,0.000000,,2013-08-01 04:43:00,
2013-07-31 23:13:00,71.0,38.0,-100.00,South,189,9.0,12.0,30,0.00,,,0.00,0.000000,,2013-08-01 05:13:00,
2013-07-31 23:23:00,71.0,38.0,-100.00,South,189,9.0,12.0,30,0.00,,,0.00,0.000000,,2013-08-01 05:23:00,
2013-07-31 23:33:00,71.0,38.0,-100.00,South,189,9.0,12.0,30,0.00,,,0.00,0.000000,,2013-08-01 05:33:00,
2013-07-31 23:43:00,71.0,38.0,-100.00,South,189,9.0,12.0,30,0.00,,,0.00,0.000000,,2013-08-01 05:43:00,